Terminal Aerodrome Forecast
Issued by NWS

Current Version | Previous Version | Graphics & Text | Print | Product List | Glossary On
Versions: 1 2 3 4 5 6 7 8 9 10 11 12 13 14 15 16 17 18 19 20 21 22 23 24 25 26 27 28 29 30 31 32 33 34 35 36 37 38 39 40 41 42 43 44 45 46 47
000
FTUS41 KRNK 281722
TAFLWB
TAF
KLWB 281722Z 2818/2918 28007G17KT P6SM VCSH SCT040 BKN070
     FM282100 30006KT P6SM VCSH BKN040
     FM290100 00000KT 5SM BR SCT025 BKN040
     FM290500 00000KT 2SM BR BKN025
     FM291000 00000KT 1SM BR SCT001 BKN015
     FM291300 28004KT P6SM SCT015 BKN040=

USA.gov is the U.S. government's official web portal to all federal, state and local government web resources and services.